sensor_id;sensor_type;location;lat;lon;timestamp;P1;durP1;ratioP1;P2;durP2;ratioP2
6356;SDS011;3211;53.452;-2.264;2023-06-24T00:01:28;4.20;;;2.27;;
6356;SDS011;3211;53.452;-2.264;2023-06-24T00:04:11;3.80;;;2.20;;
6356;SDS011;3211;53.452;-2.264;2023-06-24T00:06:59;2.40;;;2.00;;
6356;SDS011;3211;53.452;-2.264;2023-06-24T00:09:44;2.73;;;2.17;;
6356;SDS011;3211;53.452;-2.264;2023-06-24T00:12:26;4.63;;;2.10;;
6356;SDS011;3211;53.452;-2.264;2023-06-24T00:15:08;2.20;;;2.00;;
6356;SDS011;3211;53.452;-2.264;2023-06-24T00:17:50;4.37;;;2.53;;
6356;SDS011;3211;53.452;-2.264;2023-06-24T00:20:32;4.03;;;2.30;;
6356;SDS011;3211;53.452;-2.264;2023-06-24T00:23:16;2.40;;;2.20;;
6356;SDS011;3211;53.452;-2.264;2023-06-24T00:26:04;4.87;;;1.87;;
6356;SDS011;3211;53.452;-2.264;2023-06-24T00:28:46;1.80;;;1.70;;
6356;SDS011;3211;53.452;-2.264;2023-06-24T00:31:28;2.60;;;2.10;;
6356;SDS011;3211;53.452;-2.264;2023-06-24T00:34:10;3.30;;;2.20;;
6356;SDS011;3211;53.452;-2.264;2023-06-24T00:36:52;2.90;;;2.00;;
6356;SDS011;3211;53.452;-2.264;2023-06-24T00:39:36;2.77;;;2.27;;
6356;SDS011;3211;53.452;-2.264;2023-06-24T00:42:18;3.30;;;2.07;;
6356;SDS011;3211;53.452;-2.264;2023-06-24T00:45:01;2.10;;;1.80;;
6356;SDS011;3211;53.452;-2.264;2023-06-24T00:47:44;2.40;;;2.20;;
6356;SDS011;3211;53.452;-2.264;2023-06-24T00:50:26;2.73;;;2.30;;
6356;SDS011;3211;53.452;-2.264;2023-06-24T00:53:08;4.07;;;1.97;;
6356;SDS011;3211;53.452;-2.264;2023-06-24T00:55:53;2.33;;;2.10;;
6356;SDS011;3211;53.452;-2.264;2023-06-24T00:58:36;4.13;;;2.23;;
6356;SDS011;3211;53.452;-2.264;2023-06-24T01:01:19;2.50;;;2.03;;
6356;SDS011;3211;53.452;-2.264;2023-06-24T01:04:02;4.10;;;2.20;;
6356;SDS011;3211;53.452;-2.264;2023-06-24T01:06:45;3.40;;;2.00;;
6356;SDS011;3211;53.452;-2.264;2023-06-24T01:09:27;3.20;;;2.30;;
6356;SDS011;3211;53.452;-2.264;2023-06-24T01:12:10;2.60;;;2.40;;
6356;SDS011;3211;53.452;-2.264;2023-06-24T01:14:52;2.10;;;1.90;;
6356;SDS011;3211;53.452;-2.264;2023-06-24T01:17:35;4.67;;;2.67;;
6356;SDS011;3211;53.452;-2.264;2023-06-24T01:20:22;4.73;;;2.80;;
6356;SDS011;3211;53.452;-2.264;2023-06-24T01:26:21;3.07;;;2.50;;
6356;SDS011;3211;53.452;-2.264;2023-06-24T01:29:31;4.13;;;2.27;;
6356;SDS011;3211;53.452;-2.264;2023-06-24T01:32:27;2.97;;;2.50;;
6356;SDS011;3211;53.452;-2.264;2023-06-24T01:35:15;2.90;;;2.60;;
6356;SDS011;3211;53.452;-2.264;2023-06-24T01:38:03;5.37;;;2.73;;
6356;SDS011;3211;53.452;-2.264;2023-06-24T01:40:49;2.77;;;2.33;;
6356;SDS011;3211;53.452;-2.264;2023-06-24T01:43:32;2.07;;;1.87;;
6356;SDS011;3211;53.452;-2.264;2023-06-24T01:46:17;3.50;;;2.20;;
6356;SDS011;3211;53.452;-2.264;2023-06-24T01:49:04;3.53;;;2.20;;
6356;SDS011;3211;53.452;-2.264;2023-06-24T01:51:52;3.30;;;2.40;;
6356;SDS011;3211;53.452;-2.264;2023-06-24T01:54:38;3.53;;;2.23;;
6356;SDS011;3211;53.452;-2.264;2023-06-24T01:57:21;2.50;;;2.30;;
6356;SDS011;3211;53.452;-2.264;2023-06-24T02:00:05;2.37;;;2.17;;
6356;SDS011;3211;53.452;-2.264;2023-06-24T02:02:50;2.50;;;2.20;;
6356;SDS011;3211;53.452;-2.264;2023-06-24T02:05:34;2.60;;;2.37;;
6356;SDS011;3211;53.452;-2.264;2023-06-24T02:08:19;4.27;;;2.30;;
6356;SDS011;3211;53.452;-2.264;2023-06-24T02:11:02;3.53;;;2.30;;
6356;SDS011;3211;53.452;-2.264;2023-06-24T02:13:46;3.33;;;2.50;;
6356;SDS011;3211;53.452;-2.264;2023-06-24T02:16:28;3.50;;;2.37;;
6356;SDS011;3211;53.452;-2.264;2023-06-24T02:19:11;3.47;;;2.47;;
6356;SDS011;3211;53.452;-2.264;2023-06-24T02:21:59;2.77;;;2.20;;
6356;SDS011;3211;53.452;-2.264;2023-06-24T02:24:44;3.07;;;2.13;;
6356;SDS011;3211;53.452;-2.264;2023-06-24T02:27:27;6.90;;;2.40;;
6356;SDS011;3211;53.452;-2.264;2023-06-24T02:30:10;4.17;;;2.53;;
6356;SDS011;3211;53.452;-2.264;2023-06-24T02:32:53;2.73;;;2.50;;
6356;SDS011;3211;53.452;-2.264;2023-06-24T02:35:36;3.63;;;2.53;;
6356;SDS011;3211;53.452;-2.264;2023-06-24T02:38:19;3.40;;;2.37;;
6356;SDS011;3211;53.452;-2.264;2023-06-24T02:41:01;3.63;;;2.73;;
6356;SDS011;3211;53.452;-2.264;2023-06-24T02:43:44;2.73;;;2.13;;
6356;SDS011;3211;53.452;-2.264;2023-06-24T02:46:26;3.30;;;2.60;;
6356;SDS011;3211;53.452;-2.264;2023-06-24T02:49:11;3.63;;;2.30;;
6356;SDS011;3211;53.452;-2.264;2023-06-24T02:51:55;3.93;;;2.40;;
6356;SDS011;3211;53.452;-2.264;2023-06-24T02:54:39;2.70;;;2.50;;
6356;SDS011;3211;53.452;-2.264;2023-06-24T02:57:22;4.53;;;2.60;;
6356;SDS011;3211;53.452;-2.264;2023-06-24T03:00:06;3.50;;;2.83;;
6356;SDS011;3211;53.452;-2.264;2023-06-24T03:02:52;6.13;;;2.40;;
6356;SDS011;3211;53.452;-2.264;2023-06-24T03:05:35;5.40;;;2.43;;
6356;SDS011;3211;53.452;-2.264;2023-06-24T03:08:17;3.20;;;2.33;;
6356;SDS011;3211;53.452;-2.264;2023-06-24T03:11:00;3.70;;;2.33;;
6356;SDS011;3211;53.452;-2.264;2023-06-24T03:13:43;2.93;;;2.17;;
6356;SDS011;3211;53.452;-2.264;2023-06-24T03:16:25;4.23;;;2.77;;
6356;SDS011;3211;53.452;-2.264;2023-06-24T03:19:07;3.30;;;2.60;;
6356;SDS011;3211;53.452;-2.264;2023-06-24T03:21:49;2.30;;;2.10;;
6356;SDS011;3211;53.452;-2.264;2023-06-24T03:24:31;3.70;;;2.60;;
6356;SDS011;3211;53.452;-2.264;2023-06-24T03:27:14;2.70;;;2.20;;
6356;SDS011;3211;53.452;-2.264;2023-06-24T03:29:56;6.33;;;2.97;;
6356;SDS011;3211;53.452;-2.264;2023-06-24T03:32:38;4.57;;;2.80;;
6356;SDS011;3211;53.452;-2.264;2023-06-24T03:35:20;4.03;;;2.60;;
6356;SDS011;3211;53.452;-2.264;2023-06-24T03:38:02;3.00;;;2.60;;
6356;SDS011;3211;53.452;-2.264;2023-06-24T03:40:44;3.10;;;2.50;;
6356;SDS011;3211;53.452;-2.264;2023-06-24T03:43:27;4.93;;;2.73;;
6356;SDS011;3211;53.452;-2.264;2023-06-24T03:46:09;4.90;;;2.60;;
6356;SDS011;3211;53.452;-2.264;2023-06-24T03:48:51;3.00;;;2.30;;
6356;SDS011;3211;53.452;-2.264;2023-06-24T03:51:33;4.73;;;2.60;;
6356;SDS011;3211;53.452;-2.264;2023-06-24T03:54:15;5.83;;;3.00;;
6356;SDS011;3211;53.452;-2.264;2023-06-24T03:56:57;4.30;;;2.70;;
6356;SDS011;3211;53.452;-2.264;2023-06-24T03:59:40;4.50;;;2.67;;
6356;SDS011;3211;53.452;-2.264;2023-06-24T04:02:22;5.13;;;2.50;;
6356;SDS011;3211;53.452;-2.264;2023-06-24T04:05:04;2.70;;;2.50;;
6356;SDS011;3211;53.452;-2.264;2023-06-24T04:07:47;2.57;;;2.37;;
6356;SDS011;3211;53.452;-2.264;2023-06-24T04:10:30;4.13;;;3.07;;
6356;SDS011;3211;53.452;-2.264;2023-06-24T04:13:12;4.73;;;2.83;;
6356;SDS011;3211;53.452;-2.264;2023-06-24T04:15:56;3.20;;;2.63;;
6356;SDS011;3211;53.452;-2.264;2023-06-24T04:18:37;3.30;;;2.50;;
6356;SDS011;3211;53.452;-2.264;2023-06-24T04:21:19;4.20;;;2.60;;
6356;SDS011;3211;53.452;-2.264;2023-06-24T04:24:01;3.80;;;2.40;;
6356;SDS011;3211;53.452;-2.264;2023-06-24T04:26:43;4.80;;;2.37;;
6356;SDS011;3211;53.452;-2.264;2023-06-24T04:29:25;4.13;;;2.40;;
6356;SDS011;3211;53.452;-2.264;2023-06-24T04:32:09;6.10;;;2.53;;
6356;SDS011;3211;53.452;-2.264;2023-06-24T04:34:51;3.70;;;2.70;;
6356;SDS011;3211;53.452;-2.264;2023-06-24T04:37:33;2.83;;;2.63;;
6356;SDS011;3211;53.452;-2.264;2023-06-24T04:40:15;4.07;;;2.67;;
6356;SDS011;3211;53.452;-2.264;2023-06-24T04:42:59;3.40;;;2.90;;
6356;SDS011;3211;53.452;-2.264;2023-06-24T04:45:41;5.40;;;2.70;;
6356;SDS011;3211;53.452;-2.264;2023-06-24T04:48:24;2.77;;;2.20;;
6356;SDS011;3211;53.452;-2.264;2023-06-24T04:51:07;4.00;;;2.33;;
6356;SDS011;3211;53.452;-2.264;2023-06-24T04:53:49;2.93;;;2.20;;
6356;SDS011;3211;53.452;-2.264;2023-06-24T04:56:31;2.90;;;2.40;;
6356;SDS011;3211;53.452;-2.264;2023-06-24T04:59:14;3.03;;;2.47;;
6356;SDS011;3211;53.452;-2.264;2023-06-24T05:01:56;3.00;;;2.13;;
6356;SDS011;3211;53.452;-2.264;2023-06-24T05:04:39;4.20;;;2.60;;
6356;SDS011;3211;53.452;-2.264;2023-06-24T05:07:21;2.63;;;2.40;;
6356;SDS011;3211;53.452;-2.264;2023-06-24T05:10:03;2.60;;;2.33;;
6356;SDS011;3211;53.452;-2.264;2023-06-24T05:12:46;4.10;;;2.23;;
6356;SDS011;3211;53.452;-2.264;2023-06-24T05:15:28;4.07;;;2.20;;
6356;SDS011;3211;53.452;-2.264;2023-06-24T05:18:10;3.50;;;2.37;;
6356;SDS011;3211;53.452;-2.264;2023-06-24T05:20:53;2.40;;;2.20;;
6356;SDS011;3211;53.452;-2.264;2023-06-24T05:23:35;3.37;;;2.10;;
6356;SDS011;3211;53.452;-2.264;2023-06-24T05:26:17;4.20;;;2.50;;
6356;SDS011;3211;53.452;-2.264;2023-06-24T05:28:59;3.43;;;2.37;;
6356;SDS011;3211;53.452;-2.264;2023-06-24T05:31:41;3.90;;;3.00;;
6356;SDS011;3211;53.452;-2.264;2023-06-24T05:34:23;3.63;;;2.50;;
6356;SDS011;3211;53.452;-2.264;2023-06-24T05:37:06;2.70;;;2.47;;
6356;SDS011;3211;53.452;-2.264;2023-06-24T05:39:48;6.00;;;3.13;;
6356;SDS011;3211;53.452;-2.264;2023-06-24T05:42:30;2.47;;;2.27;;
6356;SDS011;3211;53.452;-2.264;2023-06-24T05:45:13;3.53;;;2.47;;
6356;SDS011;3211;53.452;-2.264;2023-06-24T05:47:55;3.40;;;2.60;;
6356;SDS011;3211;53.452;-2.264;2023-06-24T05:50:37;3.97;;;2.70;;
6356;SDS011;3211;53.452;-2.264;2023-06-24T05:53:20;2.67;;;2.47;;
6356;SDS011;3211;53.452;-2.264;2023-06-24T05:56:02;4.00;;;3.00;;
6356;SDS011;3211;53.452;-2.264;2023-06-24T05:58:44;2.40;;;2.20;;
6356;SDS011;3211;53.452;-2.264;2023-06-24T06:01:26;2.80;;;2.60;;
6356;SDS011;3211;53.452;-2.264;2023-06-24T06:04:08;2.80;;;2.60;;
6356;SDS011;3211;53.452;-2.264;2023-06-24T06:06:50;2.53;;;2.33;;
6356;SDS011;3211;53.452;-2.264;2023-06-24T06:09:34;6.03;;;2.20;;
6356;SDS011;3211;53.452;-2.264;2023-06-24T06:12:16;5.03;;;2.50;;
6356;SDS011;3211;53.452;-2.264;2023-06-24T06:14:58;3.70;;;3.00;;
6356;SDS011;3211;53.452;-2.264;2023-06-24T06:17:39;2.90;;;2.10;;
6356;SDS011;3211;53.452;-2.264;2023-06-24T06:20:22;3.17;;;2.33;;
6356;SDS011;3211;53.452;-2.264;2023-06-24T06:23:04;2.90;;;2.47;;
6356;SDS011;3211;53.452;-2.264;2023-06-24T06:25:47;3.20;;;2.90;;
6356;SDS011;3211;53.452;-2.264;2023-06-24T06:28:29;3.53;;;2.40;;
6356;SDS011;3211;53.452;-2.264;2023-06-24T06:31:11;3.57;;;2.60;;
6356;SDS011;3211;53.452;-2.264;2023-06-24T06:33:52;3.13;;;2.63;;
6356;SDS011;3211;53.452;-2.264;2023-06-24T06:36:34;3.90;;;2.37;;
6356;SDS011;3211;53.452;-2.264;2023-06-24T06:39:16;4.33;;;2.57;;
6356;SDS011;3211;53.452;-2.264;2023-06-24T06:42:00;2.90;;;2.30;;
6356;SDS011;3211;53.452;-2.264;2023-06-24T06:44:41;2.53;;;2.30;;
6356;SDS011;3211;53.452;-2.264;2023-06-24T06:47:23;5.33;;;2.40;;
6356;SDS011;3211;53.452;-2.264;2023-06-24T06:50:06;3.47;;;2.47;;
6356;SDS011;3211;53.452;-2.264;2023-06-24T06:52:49;3.60;;;2.67;;
6356;SDS011;3211;53.452;-2.264;2023-06-24T06:55:30;3.40;;;2.30;;
6356;SDS011;3211;53.452;-2.264;2023-06-24T06:58:14;5.00;;;2.80;;
6356;SDS011;3211;53.452;-2.264;2023-06-24T07:00:56;2.50;;;2.30;;
6356;SDS011;3211;53.452;-2.264;2023-06-24T07:03:41;2.83;;;2.63;;
6356;SDS011;3211;53.452;-2.264;2023-06-24T07:06:23;3.27;;;2.30;;
6356;SDS011;3211;53.452;-2.264;2023-06-24T07:09:05;3.63;;;2.60;;
6356;SDS011;3211;53.452;-2.264;2023-06-24T07:11:47;3.80;;;2.27;;
6356;SDS011;3211;53.452;-2.264;2023-06-24T07:14:31;2.70;;;2.40;;
6356;SDS011;3211;53.452;-2.264;2023-06-24T07:17:12;2.70;;;2.37;;
6356;SDS011;3211;53.452;-2.264;2023-06-24T07:19:54;4.43;;;2.37;;
6356;SDS011;3211;53.452;-2.264;2023-06-24T07:22:36;3.90;;;2.83;;
6356;SDS011;3211;53.452;-2.264;2023-06-24T07:25:18;4.73;;;2.80;;
6356;SDS011;3211;53.452;-2.264;2023-06-24T07:28:00;5.00;;;2.83;;
6356;SDS011;3211;53.452;-2.264;2023-06-24T07:30:44;3.30;;;2.60;;
6356;SDS011;3211;53.452;-2.264;2023-06-24T07:33:25;4.43;;;2.83;;
6356;SDS011;3211;53.452;-2.264;2023-06-24T07:36:10;4.73;;;2.80;;
6356;SDS011;3211;53.452;-2.264;2023-06-24T07:38:53;3.67;;;2.90;;
6356;SDS011;3211;53.452;-2.264;2023-06-24T07:41:35;3.20;;;2.40;;
6356;SDS011;3211;53.452;-2.264;2023-06-24T07:44:17;3.00;;;2.50;;
6356;SDS011;3211;53.452;-2.264;2023-06-24T07:47:01;3.23;;;2.70;;
6356;SDS011;3211;53.452;-2.264;2023-06-24T07:49:43;4.03;;;2.87;;
6356;SDS011;3211;53.452;-2.264;2023-06-24T07:52:25;2.50;;;2.23;;
6356;SDS011;3211;53.452;-2.264;2023-06-24T07:55:07;5.00;;;2.90;;
6356;SDS011;3211;53.452;-2.264;2023-06-24T07:57:49;2.83;;;2.60;;
6356;SDS011;3211;53.452;-2.264;2023-06-24T08:00:31;2.93;;;2.70;;
6356;SDS011;3211;53.452;-2.264;2023-06-24T08:03:15;2.80;;;2.60;;
6356;SDS011;3211;53.452;-2.264;2023-06-24T08:05:57;3.40;;;2.80;;
6356;SDS011;3211;53.452;-2.264;2023-06-24T08:08:39;6.20;;;2.90;;
6356;SDS011;3211;53.452;-2.264;2023-06-24T08:11:21;3.70;;;2.67;;
6356;SDS011;3211;53.452;-2.264;2023-06-24T08:14:03;4.87;;;2.37;;
6356;SDS011;3211;53.452;-2.264;2023-06-24T08:16:45;2.80;;;2.50;;
6356;SDS011;3211;53.452;-2.264;2023-06-24T08:19:28;4.40;;;2.87;;
6356;SDS011;3211;53.452;-2.264;2023-06-24T08:22:10;2.93;;;2.67;;
6356;SDS011;3211;53.452;-2.264;2023-06-24T08:24:52;4.90;;;2.60;;
6356;SDS011;3211;53.452;-2.264;2023-06-24T08:27:34;4.33;;;2.40;;
6356;SDS011;3211;53.452;-2.264;2023-06-24T08:30:17;3.20;;;2.50;;
6356;SDS011;3211;53.452;-2.264;2023-06-24T08:32:59;3.03;;;2.30;;
6356;SDS011;3211;53.452;-2.264;2023-06-24T08:35:42;5.20;;;2.50;;
6356;SDS011;3211;53.452;-2.264;2023-06-24T08:38:24;4.80;;;2.80;;
6356;SDS011;3211;53.452;-2.264;2023-06-24T08:41:06;2.33;;;1.90;;
6356;SDS011;3211;53.452;-2.264;2023-06-24T08:43:48;2.50;;;2.30;;
6356;SDS011;3211;53.452;-2.264;2023-06-24T08:46:30;2.77;;;2.40;;
6356;SDS011;3211;53.452;-2.264;2023-06-24T08:49:17;2.57;;;2.37;;
6356;SDS011;3211;53.452;-2.264;2023-06-24T08:52:11;2.53;;;2.30;;
6356;SDS011;3211;53.452;-2.264;2023-06-24T08:54:55;2.70;;;2.00;;
6356;SDS011;3211;53.452;-2.264;2023-06-24T08:57:40;2.47;;;2.00;;
6356;SDS011;3211;53.452;-2.264;2023-06-24T09:00:22;2.40;;;2.20;;
6356;SDS011;3211;53.452;-2.264;2023-06-24T09:03:04;2.40;;;2.20;;
6356;SDS011;3211;53.452;-2.264;2023-06-24T09:05:46;2.80;;;2.00;;
6356;SDS011;3211;53.452;-2.264;2023-06-24T09:08:30;2.40;;;2.20;;
6356;SDS011;3211;53.452;-2.264;2023-06-24T09:11:16;2.33;;;2.07;;
6356;SDS011;3211;53.452;-2.264;2023-06-24T09:14:04;3.50;;;2.27;;
6356;SDS011;3211;53.452;-2.264;2023-06-24T09:16:50;2.20;;;1.70;;
6356;SDS011;3211;53.452;-2.264;2023-06-24T09:19:33;2.70;;;1.87;;
6356;SDS011;3211;53.452;-2.264;2023-06-24T09:22:16;2.03;;;1.83;;
6356;SDS011;3211;53.452;-2.264;2023-06-24T09:25:01;1.90;;;1.80;;
6356;SDS011;3211;53.452;-2.264;2023-06-24T09:27:47;2.20;;;2.00;;
6356;SDS011;3211;53.452;-2.264;2023-06-24T09:30:30;2.40;;;2.00;;
6356;SDS011;3211;53.452;-2.264;2023-06-24T09:33:12;2.60;;;1.80;;
6356;SDS011;3211;53.452;-2.264;2023-06-24T09:35:54;1.73;;;1.63;;
6356;SDS011;3211;53.452;-2.264;2023-06-24T09:38:38;4.13;;;1.90;;
6356;SDS011;3211;53.452;-2.264;2023-06-24T09:41:26;2.00;;;1.80;;
6356;SDS011;3211;53.452;-2.264;2023-06-24T09:44:08;2.17;;;1.90;;
6356;SDS011;3211;53.452;-2.264;2023-06-24T09:46:54;3.00;;;1.90;;
6356;SDS011;3211;53.452;-2.264;2023-06-24T09:49:36;1.93;;;1.73;;
6356;SDS011;3211;53.452;-2.264;2023-06-24T09:52:18;1.93;;;1.83;;
6356;SDS011;3211;53.452;-2.264;2023-06-24T09:55:01;2.93;;;2.10;;
6356;SDS011;3211;53.452;-2.264;2023-06-24T09:57:46;2.23;;;1.90;;
6356;SDS011;3211;53.452;-2.264;2023-06-24T10:00:32;2.60;;;2.00;;
6356;SDS011;3211;53.452;-2.264;2023-06-24T10:03:14;2.20;;;1.77;;
6356;SDS011;3211;53.452;-2.264;2023-06-24T10:05:57;1.90;;;1.50;;
6356;SDS011;3211;53.452;-2.264;2023-06-24T10:08:39;1.93;;;1.60;;
6356;SDS011;3211;53.452;-2.264;2023-06-24T10:11:21;1.90;;;1.40;;
6356;SDS011;3211;53.452;-2.264;2023-06-24T10:14:05;2.97;;;1.87;;
6356;SDS011;3211;53.452;-2.264;2023-06-24T10:16:47;1.83;;;1.50;;
6356;SDS011;3211;53.452;-2.264;2023-06-24T10:19:29;3.10;;;1.53;;
6356;SDS011;3211;53.452;-2.264;2023-06-24T10:22:11;2.13;;;1.73;;
6356;SDS011;3211;53.452;-2.264;2023-06-24T10:24:53;1.50;;;1.40;;
6356;SDS011;3211;53.452;-2.264;2023-06-24T10:27:43;3.23;;;1.60;;
6356;SDS011;3211;53.452;-2.264;2023-06-24T10:30:27;2.27;;;1.60;;
6356;SDS011;3211;53.452;-2.264;2023-06-24T10:33:09;1.97;;;1.40;;
6356;SDS011;3211;53.452;-2.264;2023-06-24T10:35:51;1.70;;;1.53;;
6356;SDS011;3211;53.452;-2.264;2023-06-24T10:38:33;1.50;;;1.40;;
6356;SDS011;3211;53.452;-2.264;2023-06-24T10:41:19;1.70;;;1.53;;
6356;SDS011;3211;53.452;-2.264;2023-06-24T10:44:13;1.93;;;1.70;;
6356;SDS011;3211;53.452;-2.264;2023-06-24T10:46:57;1.80;;;1.70;;
6356;SDS011;3211;53.452;-2.264;2023-06-24T10:49:39;3.40;;;1.97;;
6356;SDS011;3211;53.452;-2.264;2023-06-24T10:52:22;2.03;;;1.60;;
6356;SDS011;3211;53.452;-2.264;2023-06-24T10:55:04;2.97;;;1.80;;
6356;SDS011;3211;53.452;-2.264;2023-06-24T10:57:48;3.70;;;2.07;;
6356;SDS011;3211;53.452;-2.264;2023-06-24T11:00:30;2.77;;;1.80;;
6356;SDS011;3211;53.452;-2.264;2023-06-24T11:03:15;1.87;;;1.53;;
6356;SDS011;3211;53.452;-2.264;2023-06-24T11:05:58;2.43;;;1.90;;
6356;SDS011;3211;53.452;-2.264;2023-06-24T11:08:44;1.70;;;1.60;;
6356;SDS011;3211;53.452;-2.264;2023-06-24T11:11:27;2.40;;;2.00;;
6356;SDS011;3211;53.452;-2.264;2023-06-24T11:14:10;4.30;;;1.90;;
6356;SDS011;3211;53.452;-2.264;2023-06-24T11:16:53;1.80;;;1.70;;
6356;SDS011;3211;53.452;-2.264;2023-06-24T11:19:36;2.30;;;2.00;;
6356;SDS011;3211;53.452;-2.264;2023-06-24T11:22:20;2.30;;;2.07;;
6356;SDS011;3211;53.452;-2.264;2023-06-24T11:25:02;2.67;;;1.90;;
6356;SDS011;3211;53.452;-2.264;2023-06-24T11:27:45;2.87;;;2.00;;
6356;SDS011;3211;53.452;-2.264;2023-06-24T11:30:33;2.50;;;1.80;;
6356;SDS011;3211;53.452;-2.264;2023-06-24T11:33:25;4.33;;;1.83;;
6356;SDS011;3211;53.452;-2.264;2023-06-24T11:36:10;1.97;;;1.70;;
6356;SDS011;3211;53.452;-2.264;2023-06-24T11:38:52;2.10;;;1.90;;
6356;SDS011;3211;53.452;-2.264;2023-06-24T11:41:34;2.30;;;1.70;;
6356;SDS011;3211;53.452;-2.264;2023-06-24T11:44:19;2.27;;;1.90;;
6356;SDS011;3211;53.452;-2.264;2023-06-24T11:47:05;2.80;;;2.00;;
6356;SDS011;3211;53.452;-2.264;2023-06-24T11:49:48;1.90;;;1.70;;
6356;SDS011;3211;53.452;-2.264;2023-06-24T11:52:39;2.30;;;2.10;;
6356;SDS011;3211;53.452;-2.264;2023-06-24T11:55:24;1.50;;;1.40;;
6356;SDS011;3211;53.452;-2.264;2023-06-24T11:58:06;3.17;;;1.90;;
6356;SDS011;3211;53.452;-2.264;2023-06-24T12:00:49;5.63;;;1.70;;
6356;SDS011;3211;53.452;-2.264;2023-06-24T12:03:32;3.43;;;1.93;;
6356;SDS011;3211;53.452;-2.264;2023-06-24T12:06:15;3.33;;;1.80;;
6356;SDS011;3211;53.452;-2.264;2023-06-24T12:08:58;1.93;;;1.60;;
6356;SDS011;3211;53.452;-2.264;2023-06-24T12:11:40;2.03;;;1.80;;
6356;SDS011;3211;53.452;-2.264;2023-06-24T12:14:22;3.03;;;2.40;;
6356;SDS011;3211;53.452;-2.264;2023-06-24T12:17:04;1.90;;;1.70;;
6356;SDS011;3211;53.452;-2.264;2023-06-24T12:19:46;4.70;;;2.07;;
6356;SDS011;3211;53.452;-2.264;2023-06-24T12:22:28;6.80;;;1.90;;
6356;SDS011;3211;53.452;-2.264;2023-06-24T12:25:11;2.77;;;1.80;;
6356;SDS011;3211;53.452;-2.264;2023-06-24T12:27:53;2.53;;;1.93;;
6356;SDS011;3211;53.452;-2.264;2023-06-24T12:30:36;2.20;;;1.83;;
6356;SDS011;3211;53.452;-2.264;2023-06-24T12:33:17;3.17;;;1.80;;
6356;SDS011;3211;53.452;-2.264;2023-06-24T12:36:01;3.73;;;1.90;;
6356;SDS011;3211;53.452;-2.264;2023-06-24T12:38:43;2.80;;;2.13;;
6356;SDS011;3211;53.452;-2.264;2023-06-24T12:41:26;4.07;;;1.70;;
6356;SDS011;3211;53.452;-2.264;2023-06-24T12:44:08;2.90;;;1.90;;
6356;SDS011;3211;53.452;-2.264;2023-06-24T12:46:50;5.17;;;1.97;;
6356;SDS011;3211;53.452;-2.264;2023-06-24T12:49:32;2.80;;;1.70;;
6356;SDS011;3211;53.452;-2.264;2023-06-24T12:52:14;2.70;;;1.73;;
6356;SDS011;3211;53.452;-2.264;2023-06-24T12:54:56;2.33;;;2.07;;
6356;SDS011;3211;53.452;-2.264;2023-06-24T12:57:40;2.50;;;1.97;;
6356;SDS011;3211;53.452;-2.264;2023-06-24T13:00:22;2.53;;;1.80;;
6356;SDS011;3211;53.452;-2.264;2023-06-24T13:03:05;3.70;;;2.97;;
6356;SDS011;3211;53.452;-2.264;2023-06-24T13:05:47;3.67;;;2.13;;
6356;SDS011;3211;53.452;-2.264;2023-06-24T13:08:29;2.77;;;2.00;;
6356;SDS011;3211;53.452;-2.264;2023-06-24T13:11:11;2.43;;;1.90;;
6356;SDS011;3211;53.452;-2.264;2023-06-24T13:13:54;2.90;;;2.00;;
6356;SDS011;3211;53.452;-2.264;2023-06-24T13:16:36;2.40;;;1.90;;
6356;SDS011;3211;53.452;-2.264;2023-06-24T13:19:18;3.43;;;2.13;;
6356;SDS011;3211;53.452;-2.264;2023-06-24T13:22:00;2.27;;;2.00;;
6356;SDS011;3211;53.452;-2.264;2023-06-24T13:24:42;2.80;;;1.90;;
6356;SDS011;3211;53.452;-2.264;2023-06-24T13:27:25;2.20;;;1.93;;
6356;SDS011;3211;53.452;-2.264;2023-06-24T13:30:09;1.90;;;1.50;;
6356;SDS011;3211;53.452;-2.264;2023-06-24T13:32:52;4.77;;;2.23;;
6356;SDS011;3211;53.452;-2.264;2023-06-24T13:35:34;2.20;;;1.80;;
6356;SDS011;3211;53.452;-2.264;2023-06-24T13:38:16;5.27;;;2.20;;
6356;SDS011;3211;53.452;-2.264;2023-06-24T13:40:58;2.50;;;1.93;;
6356;SDS011;3211;53.452;-2.264;2023-06-24T13:43:40;2.23;;;1.90;;
6356;SDS011;3211;53.452;-2.264;2023-06-24T13:46:23;2.77;;;2.10;;
6356;SDS011;3211;53.452;-2.264;2023-06-24T13:49:05;2.53;;;1.93;;
6356;SDS011;3211;53.452;-2.264;2023-06-24T13:51:47;1.93;;;1.67;;
6356;SDS011;3211;53.452;-2.264;2023-06-24T13:54:29;3.33;;;1.90;;
6356;SDS011;3211;53.452;-2.264;2023-06-24T13:57:13;2.80;;;1.90;;
6356;SDS011;3211;53.452;-2.264;2023-06-24T13:59:56;6.10;;;2.13;;
6356;SDS011;3211;53.452;-2.264;2023-06-24T14:02:39;2.63;;;1.87;;
6356;SDS011;3211;53.452;-2.264;2023-06-24T14:05:21;2.80;;;1.97;;
6356;SDS011;3211;53.452;-2.264;2023-06-24T14:08:03;4.80;;;2.20;;
6356;SDS011;3211;53.452;-2.264;2023-06-24T14:10:45;3.40;;;2.10;;
6356;SDS011;3211;53.452;-2.264;2023-06-24T14:13:28;3.47;;;2.20;;
6356;SDS011;3211;53.452;-2.264;2023-06-24T14:16:10;2.80;;;1.90;;
6356;SDS011;3211;53.452;-2.264;2023-06-24T14:18:54;2.43;;;2.10;;
6356;SDS011;3211;53.452;-2.264;2023-06-24T14:21:36;3.50;;;2.17;;
6356;SDS011;3211;53.452;-2.264;2023-06-24T14:24:18;3.93;;;1.97;;
6356;SDS011;3211;53.452;-2.264;2023-06-24T14:27:00;2.93;;;1.87;;
6356;SDS011;3211;53.452;-2.264;2023-06-24T14:29:42;3.00;;;2.33;;
6356;SDS011;3211;53.452;-2.264;2023-06-24T14:32:24;5.87;;;1.83;;
6356;SDS011;3211;53.452;-2.264;2023-06-24T14:35:08;3.00;;;1.73;;
6356;SDS011;3211;53.452;-2.264;2023-06-24T14:37:50;2.87;;;2.00;;
6356;SDS011;3211;53.452;-2.264;2023-06-24T14:40:32;5.37;;;1.70;;
6356;SDS011;3211;53.452;-2.264;2023-06-24T14:43:14;2.00;;;1.63;;
6356;SDS011;3211;53.452;-2.264;2023-06-24T14:45:56;3.10;;;2.00;;
6356;SDS011;3211;53.452;-2.264;2023-06-24T14:48:38;2.50;;;1.80;;
6356;SDS011;3211;53.452;-2.264;2023-06-24T14:51:23;2.37;;;1.60;;
6356;SDS011;3211;53.452;-2.264;2023-06-24T14:54:05;3.87;;;1.90;;
6356;SDS011;3211;53.452;-2.264;2023-06-24T14:56:47;3.03;;;2.20;;
6356;SDS011;3211;53.452;-2.264;2023-06-24T14:59:29;2.97;;;1.90;;
6356;SDS011;3211;53.452;-2.264;2023-06-24T15:02:11;2.73;;;2.00;;
6356;SDS011;3211;53.452;-2.264;2023-06-24T15:04:53;4.07;;;2.50;;
6356;SDS011;3211;53.452;-2.264;2023-06-24T15:07:36;2.87;;;1.83;;
6356;SDS011;3211;53.452;-2.264;2023-06-24T15:10:18;5.17;;;2.10;;
6356;SDS011;3211;53.452;-2.264;2023-06-24T15:13:00;2.60;;;2.10;;
6356;SDS011;3211;53.452;-2.264;2023-06-24T15:15:42;4.63;;;2.13;;
6356;SDS011;3211;53.452;-2.264;2023-06-24T15:18:24;5.20;;;2.10;;
6356;SDS011;3211;53.452;-2.264;2023-06-24T15:21:06;3.53;;;1.87;;
6356;SDS011;3211;53.452;-2.264;2023-06-24T15:23:50;3.03;;;2.10;;
6356;SDS011;3211;53.452;-2.264;2023-06-24T15:26:32;3.40;;;2.20;;
6356;SDS011;3211;53.452;-2.264;2023-06-24T15:29:14;3.00;;;1.90;;
6356;SDS011;3211;53.452;-2.264;2023-06-24T15:31:56;2.90;;;2.03;;
6356;SDS011;3211;53.452;-2.264;2023-06-24T15:34:37;6.27;;;2.20;;
6356;SDS011;3211;53.452;-2.264;2023-06-24T15:37:19;5.20;;;2.37;;
6356;SDS011;3211;53.452;-2.264;2023-06-24T15:40:03;3.20;;;2.00;;
6356;SDS011;3211;53.452;-2.264;2023-06-24T15:42:46;3.00;;;1.60;;
6356;SDS011;3211;53.452;-2.264;2023-06-24T15:45:28;2.20;;;1.83;;
6356;SDS011;3211;53.452;-2.264;2023-06-24T15:48:10;5.00;;;2.10;;
6356;SDS011;3211;53.452;-2.264;2023-06-24T15:50:52;2.23;;;1.70;;
6356;SDS011;3211;53.452;-2.264;2023-06-24T15:53:34;3.57;;;1.93;;
6356;SDS011;3211;53.452;-2.264;2023-06-24T15:56:17;4.10;;;2.23;;
6356;SDS011;3211;53.452;-2.264;2023-06-24T15:58:59;2.50;;;1.93;;
6356;SDS011;3211;53.452;-2.264;2023-06-24T16:01:41;4.53;;;2.10;;
6356;SDS011;3211;53.452;-2.264;2023-06-24T16:04:23;3.63;;;2.10;;
6356;SDS011;3211;53.452;-2.264;2023-06-24T16:07:05;2.70;;;1.77;;
6356;SDS011;3211;53.452;-2.264;2023-06-24T16:09:47;3.00;;;2.07;;
6356;SDS011;3211;53.452;-2.264;2023-06-24T16:12:30;2.90;;;1.93;;
6356;SDS011;3211;53.452;-2.264;2023-06-24T16:15:13;2.63;;;1.80;;
6356;SDS011;3211;53.452;-2.264;2023-06-24T16:17:55;2.20;;;1.90;;
6356;SDS011;3211;53.452;-2.264;2023-06-24T16:20:37;2.10;;;1.90;;
6356;SDS011;3211;53.452;-2.264;2023-06-24T16:23:19;3.80;;;2.03;;
6356;SDS011;3211;53.452;-2.264;2023-06-24T16:26:01;2.57;;;2.00;;
6356;SDS011;3211;53.452;-2.264;2023-06-24T16:28:44;3.07;;;2.00;;
6356;SDS011;3211;53.452;-2.264;2023-06-24T16:31:27;5.50;;;2.17;;
6356;SDS011;3211;53.452;-2.264;2023-06-24T16:34:09;2.40;;;2.03;;
6356;SDS011;3211;53.452;-2.264;2023-06-24T16:36:51;3.67;;;2.40;;
6356;SDS011;3211;53.452;-2.264;2023-06-24T16:39:33;3.17;;;2.40;;